NOS6601 LIRF-DTTJ
Flight info
| Callsign | NOS6601 |
|---|---|
| Flight time | 1h 15m |
| Altitude | 37000 |
| Route | KONUT DCT KADRA DCT TINAP DCT MAZRA DCT JBA |
| Aircraft | B789/H-SDE1E2E3FGHIJ2J3J4J5M1RWXY/LB1D1 |
Departure
| Time | 2026-05-05 14:23 |
|---|---|
| Airport | Rome–Fiumicino Leonardo da Vinci International Airport (LIRF) |
Arrival
| Time | 2026-05-05 15:38 |
|---|---|
| Airport | Djerba Zarzis International Airport (DTTJ) |
| Time | Latitude | Longitude | Altitude | Speed | Heading |
|---|---|---|---|---|---|
| 2026-05-05 13:56 | 41.79604 | 12.24341 | 20 ft | 0 kts | 276° |
| 2026-05-05 14:12 | 41.79604 | 12.24342 | 20 ft | 1 kts | 276° |
| 2026-05-05 14:13 | 41.79602 | 12.24361 | 22 ft | 3 kts | 276° |
| 2026-05-05 14:13 | 41.79600 | 12.24388 | 23 ft | 3 kts | 276° |
| 2026-05-05 14:13 | 41.79598 | 12.24414 | 24 ft | 3 kts | 284° |
| 2026-05-05 14:13 | 41.79591 | 12.24437 | 20 ft | 3 kts | 304° |
| 2026-05-05 14:14 | 41.79579 | 12.24456 | 25 ft | 3 kts | 322° |
| 2026-05-05 14:14 | 41.79564 | 12.24471 | 23 ft | 3 kts | 310° |
| 2026-05-05 14:14 | 41.79554 | 12.24492 | 25 ft | 3 kts | 296° |
| 2026-05-05 14:14 | 41.79546 | 12.24514 | 23 ft | 2 kts | 296° |
| 2026-05-05 14:15 | 41.79545 | 12.24518 | 23 ft | 0 kts | 296° |
| 2026-05-05 14:17 | 41.79570 | 12.24472 | 23 ft | 9 kts | 316° |
| 2026-05-05 14:17 | 41.79630 | 12.24435 | 20 ft | 10 kts | 340° |
| 2026-05-05 14:17 | 41.79722 | 12.24389 | 20 ft | 19 kts | 340° |
| 2026-05-05 14:18 | 41.79840 | 12.24297 | 20 ft | 20 kts | 322° |
| 2026-05-05 14:18 | 41.79970 | 12.24227 | 20 ft | 19 kts | 341° |
| 2026-05-05 14:18 | 41.80045 | 12.24277 | 20 ft | 12 kts | 68° |
| 2026-05-05 14:18 | 41.80072 | 12.24384 | 21 ft | 13 kts | 70° |
| 2026-05-05 14:19 | 41.80106 | 12.24508 | 20 ft | 17 kts | 70° |
| 2026-05-05 14:19 | 41.80147 | 12.24657 | 20 ft | 18 kts | 69° |
| 2026-05-05 14:19 | 41.80190 | 12.24813 | 23 ft | 19 kts | 70° |
| 2026-05-05 14:19 | 41.80206 | 12.25039 | 20 ft | 29 kts | 85° |
| 2026-05-05 14:20 | 41.80268 | 12.25294 | 20 ft | 29 kts | 70° |
| 2026-05-05 14:20 | 41.80336 | 12.25542 | 20 ft | 28 kts | 70° |
| 2026-05-05 14:20 | 41.80403 | 12.25784 | 23 ft | 27 kts | 69° |
| 2026-05-05 14:20 | 41.80468 | 12.26022 | 20 ft | 27 kts | 69° |
| 2026-05-05 14:21 | 41.80533 | 12.26257 | 22 ft | 27 kts | 70° |
| 2026-05-05 14:21 | 41.80597 | 12.26488 | 20 ft | 26 kts | 69° |
| 2026-05-05 14:21 | 41.80660 | 12.26716 | 20 ft | 26 kts | 70° |
| 2026-05-05 14:21 | 41.80722 | 12.26941 | 23 ft | 26 kts | 70° |
| 2026-05-05 14:22 | 41.80787 | 12.27129 | 20 ft | 14 kts | 32° |
| 2026-05-05 14:22 | 41.80867 | 12.27115 | 20 ft | 12 kts | 342° |
| 2026-05-05 14:22 | 41.80952 | 12.27076 | 23 ft | 14 kts | 340° |
| 2026-05-05 14:22 | 41.80982 | 12.27030 | 20 ft | 4 kts | 269° |
| 2026-05-05 14:23 | 41.80963 | 12.26943 | 19 ft | 21 kts | 250° |
| 2026-05-05 14:23 | 41.80817 | 12.26413 | 25 ft | 102 kts | 250° |
| 2026-05-05 14:23 | 41.80476 | 12.25209 | 26 ft | 172 kts | 247° |
| 2026-05-05 14:23 | 41.80080 | 12.23632 | 884 ft | 175 kts | 244° |
| 2026-05-05 14:24 | 41.79693 | 12.22142 | 1892 ft | 171 kts | 243° |
| 2026-05-05 14:24 | 41.79288 | 12.20501 | 2462 ft | 200 kts | 256° |
| 2026-05-05 14:24 | 41.79248 | 12.18630 | 3545 ft | 202 kts | 265° |
| 2026-05-05 14:24 | 41.79221 | 12.16758 | 4674 ft | 200 kts | 265° |
| 2026-05-05 14:25 | 41.78850 | 12.14955 | 5678 ft | 203 kts | 234° |
| 2026-05-05 14:25 | 41.77931 | 12.13565 | 6852 ft | 202 kts | 226° |
| 2026-05-05 14:25 | 41.76892 | 12.12271 | 7866 ft | 205 kts | 224° |
| 2026-05-05 14:25 | 41.75814 | 12.10983 | 8800 ft | 215 kts | 221° |
| 2026-05-05 14:26 | 41.74445 | 12.10267 | 9238 ft | 247 kts | 189° |
| 2026-05-05 14:26 | 41.72639 | 12.10078 | 9814 ft | 273 kts | 189° |
| 2026-05-05 14:26 | 41.71373 | 12.09880 | 10324 ft | 283 kts | 191° |
| 2026-05-05 14:26 | 41.68616 | 12.09310 | 11010 ft | 316 kts | 192° |
| 2026-05-05 14:27 | 41.67138 | 12.09000 | 11323 ft | 333 kts | 191° |
| 2026-05-05 14:27 | 41.64053 | 12.08410 | 12653 ft | 341 kts | 191° |
| 2026-05-05 14:27 | 41.61685 | 12.07960 | 13699 ft | 347 kts | 191° |
| 2026-05-05 14:27 | 41.59276 | 12.07486 | 14637 ft | 353 kts | 191° |
| 2026-05-05 14:28 | 41.56829 | 12.07004 | 15549 ft | 358 kts | 191° |
| 2026-05-05 14:28 | 41.54349 | 12.06522 | 16445 ft | 364 kts | 191° |
| 2026-05-05 14:28 | 41.52643 | 12.06192 | 17061 ft | 367 kts | 191° |
| 2026-05-05 14:28 | 41.50098 | 12.05698 | 17950 ft | 373 kts | 191° |
| 2026-05-05 14:29 | 41.47546 | 12.05202 | 18759 ft | 378 kts | 191° |
| 2026-05-05 14:29 | 41.44896 | 12.04687 | 19524 ft | 383 kts | 191° |
| 2026-05-05 14:29 | 41.42243 | 12.04173 | 20267 ft | 388 kts | 191° |
| 2026-05-05 14:29 | 41.39558 | 12.03653 | 21008 ft | 392 kts | 191° |
| 2026-05-05 14:30 | 41.36835 | 12.03127 | 21752 ft | 398 kts | 192° |
| 2026-05-05 14:30 | 41.34087 | 12.02595 | 22462 ft | 402 kts | 192° |
| 2026-05-05 14:30 | 41.31293 | 12.02055 | 23137 ft | 407 kts | 192° |
| 2026-05-05 14:30 | 41.28518 | 12.01488 | 23763 ft | 410 kts | 194° |
| 2026-05-05 14:31 | 41.25689 | 12.00814 | 24317 ft | 414 kts | 193° |
| 2026-05-05 14:31 | 41.22833 | 12.00205 | 24909 ft | 417 kts | 193° |
| 2026-05-05 14:31 | 41.19959 | 11.99573 | 25457 ft | 420 kts | 194° |
| 2026-05-05 14:31 | 41.17068 | 11.98904 | 25995 ft | 423 kts | 194° |
| 2026-05-05 14:32 | 41.14164 | 11.98236 | 26544 ft | 425 kts | 194° |
| 2026-05-05 14:32 | 41.11236 | 11.97581 | 27080 ft | 428 kts | 194° |
| 2026-05-05 14:32 | 41.08291 | 11.96923 | 27597 ft | 431 kts | 195° |
| 2026-05-05 14:32 | 41.05324 | 11.96253 | 28111 ft | 433 kts | 195° |
| 2026-05-05 14:33 | 41.02340 | 11.95577 | 28616 ft | 436 kts | 195° |
| 2026-05-05 14:33 | 40.99338 | 11.94902 | 29107 ft | 439 kts | 195° |
| 2026-05-05 14:33 | 40.96321 | 11.94226 | 29588 ft | 442 kts | 195° |
| 2026-05-05 14:33 | 40.93283 | 11.93544 | 30072 ft | 444 kts | 195° |
| 2026-05-05 14:34 | 40.90226 | 11.92858 | 30469 ft | 446 kts | 195° |
| 2026-05-05 14:34 | 40.87197 | 11.92179 | 30845 ft | 449 kts | 195° |
| 2026-05-05 14:34 | 40.84111 | 11.91489 | 31223 ft | 451 kts | 195° |
| 2026-05-05 14:34 | 40.81003 | 11.90794 | 31591 ft | 453 kts | 195° |
| 2026-05-05 14:35 | 40.77893 | 11.90099 | 31938 ft | 455 kts | 195° |
| 2026-05-05 14:35 | 40.74762 | 11.89399 | 32282 ft | 458 kts | 195° |
| 2026-05-05 14:35 | 40.71612 | 11.88697 | 32602 ft | 460 kts | 195° |
| 2026-05-05 14:35 | 40.68447 | 11.87992 | 32923 ft | 463 kts | 195° |
| 2026-05-05 14:36 | 40.65266 | 11.87284 | 33230 ft | 465 kts | 195° |
| 2026-05-05 14:36 | 40.62069 | 11.86573 | 33525 ft | 467 kts | 195° |
| 2026-05-05 14:36 | 40.58857 | 11.85859 | 33867 ft | 468 kts | 195° |
| 2026-05-05 14:36 | 40.55643 | 11.85148 | 34280 ft | 467 kts | 195° |
| 2026-05-05 14:37 | 40.52449 | 11.84440 | 34638 ft | 466 kts | 195° |
| 2026-05-05 14:37 | 40.49450 | 11.83774 | 34956 ft | 466 kts | 195° |
| 2026-05-05 14:37 | 40.46328 | 11.83083 | 35295 ft | 465 kts | 195° |
| 2026-05-05 14:37 | 40.43220 | 11.82398 | 35656 ft | 465 kts | 195° |
| 2026-05-05 14:38 | 40.40002 | 11.81687 | 36005 ft | 464 kts | 195° |
| 2026-05-05 14:38 | 40.36818 | 11.80983 | 36340 ft | 464 kts | 195° |
| 2026-05-05 14:38 | 40.33641 | 11.80281 | 36653 ft | 463 kts | 195° |
| 2026-05-05 14:38 | 40.30462 | 11.79582 | 36947 ft | 463 kts | 195° |
| 2026-05-05 14:39 | 40.24057 | 11.78171 | 37030 ft | 467 kts | 195° |
| 2026-05-05 14:39 | 40.17705 | 11.76781 | 37025 ft | 464 kts | 195° |
| 2026-05-05 14:40 | 40.11339 | 11.75383 | 37028 ft | 464 kts | 195° |
| 2026-05-05 14:40 | 40.04957 | 11.73989 | 37026 ft | 464 kts | 195° |
| 2026-05-05 14:41 | 39.98583 | 11.72597 | 37029 ft | 464 kts | 195° |
| 2026-05-05 14:41 | 39.92213 | 11.71209 | 37027 ft | 464 kts | 195° |
| 2026-05-05 14:42 | 39.85848 | 11.69825 | 37022 ft | 464 kts | 195° |
| 2026-05-05 14:42 | 39.79476 | 11.68442 | 37023 ft | 465 kts | 195° |
| 2026-05-05 14:43 | 39.73092 | 11.67059 | 37022 ft | 466 kts | 195° |
| 2026-05-05 14:43 | 39.66691 | 11.65675 | 37023 ft | 467 kts | 195° |
| 2026-05-05 14:44 | 39.60290 | 11.64294 | 37021 ft | 466 kts | 195° |
| 2026-05-05 14:44 | 39.53929 | 11.62923 | 37019 ft | 466 kts | 195° |
| 2026-05-05 14:45 | 39.47534 | 11.61548 | 37016 ft | 466 kts | 195° |
| 2026-05-05 14:45 | 39.41136 | 11.60175 | 37015 ft | 466 kts | 195° |
| 2026-05-05 14:46 | 39.34739 | 11.58805 | 37022 ft | 466 kts | 195° |
| 2026-05-05 14:46 | 39.28344 | 11.57437 | 37011 ft | 465 kts | 195° |
| 2026-05-05 14:47 | 39.21960 | 11.56074 | 37009 ft | 465 kts | 195° |
| 2026-05-05 14:47 | 39.15572 | 11.54714 | 37013 ft | 466 kts | 194° |
| 2026-05-05 14:48 | 39.09170 | 11.53352 | 37009 ft | 467 kts | 194° |
| 2026-05-05 14:48 | 39.02750 | 11.51990 | 37006 ft | 467 kts | 194° |
| 2026-05-05 14:49 | 38.96353 | 11.50635 | 37003 ft | 465 kts | 194° |
| 2026-05-05 14:49 | 38.90019 | 11.49295 | 37003 ft | 465 kts | 194° |
| 2026-05-05 14:50 | 38.83628 | 11.47946 | 36997 ft | 464 kts | 194° |
| 2026-05-05 14:50 | 38.77249 | 11.46601 | 37003 ft | 465 kts | 194° |
| 2026-05-05 14:51 | 38.70892 | 11.45265 | 37001 ft | 466 kts | 194° |
| 2026-05-05 14:51 | 38.64498 | 11.43922 | 36999 ft | 465 kts | 194° |
| 2026-05-05 14:52 | 38.58111 | 11.42584 | 36995 ft | 465 kts | 194° |
| 2026-05-05 14:52 | 38.51720 | 11.41247 | 36997 ft | 465 kts | 194° |
| 2026-05-05 14:53 | 38.45333 | 11.39913 | 37002 ft | 465 kts | 194° |
| 2026-05-05 14:53 | 38.38934 | 11.38579 | 36995 ft | 466 kts | 194° |
| 2026-05-05 14:54 | 38.32517 | 11.37244 | 37005 ft | 466 kts | 194° |
| 2026-05-05 14:54 | 38.26124 | 11.35916 | 36999 ft | 466 kts | 194° |
| 2026-05-05 14:55 | 38.19715 | 11.34587 | 37003 ft | 466 kts | 194° |
| 2026-05-05 14:55 | 38.13302 | 11.33260 | 37002 ft | 467 kts | 194° |
| 2026-05-05 14:56 | 38.06929 | 11.31943 | 36998 ft | 467 kts | 194° |
| 2026-05-05 14:56 | 38.00525 | 11.30623 | 37002 ft | 466 kts | 194° |
| 2026-05-05 14:57 | 37.94125 | 11.29305 | 36996 ft | 465 kts | 194° |
| 2026-05-05 14:57 | 37.87730 | 11.27991 | 37000 ft | 466 kts | 193° |
| 2026-05-05 14:58 | 37.81326 | 11.26678 | 37002 ft | 466 kts | 193° |
| 2026-05-05 14:58 | 37.74905 | 11.25362 | 36996 ft | 467 kts | 193° |
| 2026-05-05 14:59 | 37.68480 | 11.24050 | 36997 ft | 467 kts | 193° |
| 2026-05-05 14:59 | 37.62074 | 11.22742 | 36997 ft | 466 kts | 193° |
| 2026-05-05 15:00 | 37.56748 | 11.21657 | 36996 ft | 465 kts | 193° |
| 2026-05-05 15:00 | 37.49291 | 11.20141 | 36997 ft | 464 kts | 193° |
| 2026-05-05 15:01 | 37.42918 | 11.18847 | 36992 ft | 464 kts | 193° |
| 2026-05-05 15:01 | 37.36546 | 11.17556 | 36996 ft | 464 kts | 193° |
| 2026-05-05 15:02 | 37.30198 | 11.16271 | 36997 ft | 465 kts | 193° |
| 2026-05-05 15:02 | 37.23874 | 11.14994 | 36996 ft | 465 kts | 193° |
| 2026-05-05 15:03 | 37.17482 | 11.13706 | 37007 ft | 464 kts | 194° |
| 2026-05-05 15:03 | 37.11102 | 11.12421 | 37001 ft | 465 kts | 194° |
| 2026-05-05 15:04 | 37.04698 | 11.11135 | 37000 ft | 465 kts | 193° |
| 2026-05-05 15:04 | 36.98312 | 11.09854 | 36997 ft | 465 kts | 193° |
| 2026-05-05 15:05 | 36.88720 | 11.07934 | 37010 ft | 466 kts | 194° |
| 2026-05-05 15:06 | 36.82318 | 11.06656 | 37008 ft | 466 kts | 194° |
| 2026-05-05 15:06 | 36.75922 | 11.05380 | 37003 ft | 465 kts | 194° |
| 2026-05-05 15:07 | 36.69567 | 11.04115 | 37006 ft | 465 kts | 194° |
| 2026-05-05 15:07 | 36.63170 | 11.02843 | 37003 ft | 466 kts | 194° |
| 2026-05-05 15:08 | 36.56765 | 11.01573 | 37004 ft | 466 kts | 194° |
| 2026-05-05 15:08 | 36.50359 | 11.00304 | 37002 ft | 465 kts | 194° |
| 2026-05-05 15:09 | 36.43968 | 10.99041 | 36998 ft | 465 kts | 194° |
| 2026-05-05 15:09 | 36.37580 | 10.97779 | 37000 ft | 465 kts | 194° |
| 2026-05-05 15:10 | 36.31168 | 10.96516 | 37005 ft | 466 kts | 194° |
| 2026-05-05 15:10 | 36.24764 | 10.95256 | 36998 ft | 466 kts | 194° |
| 2026-05-05 15:11 | 36.18363 | 10.93999 | 36995 ft | 466 kts | 194° |
| 2026-05-05 15:11 | 36.11958 | 10.92743 | 36990 ft | 465 kts | 194° |
| 2026-05-05 15:12 | 36.05559 | 10.91490 | 36994 ft | 466 kts | 194° |
| 2026-05-05 15:12 | 35.99195 | 10.90246 | 36992 ft | 467 kts | 194° |
| 2026-05-05 15:13 | 35.92766 | 10.88992 | 36990 ft | 468 kts | 194° |
| 2026-05-05 15:13 | 35.86325 | 10.87738 | 36988 ft | 468 kts | 194° |
| 2026-05-05 15:14 | 35.79904 | 10.86489 | 36985 ft | 467 kts | 194° |
| 2026-05-05 15:14 | 35.73482 | 10.85242 | 36987 ft | 466 kts | 195° |
| 2026-05-05 15:15 | 35.67109 | 10.84007 | 36065 ft | 464 kts | 194° |
| 2026-05-05 15:15 | 35.63917 | 10.83387 | 35448 ft | 463 kts | 194° |
| 2026-05-05 15:15 | 35.60745 | 10.82775 | 34839 ft | 460 kts | 194° |
| 2026-05-05 15:15 | 35.57587 | 10.82166 | 34239 ft | 458 kts | 193° |
| 2026-05-05 15:16 | 35.55500 | 10.81762 | 33814 ft | 457 kts | 193° |
| 2026-05-05 15:16 | 35.52365 | 10.81157 | 33216 ft | 454 kts | 193° |
| 2026-05-05 15:16 | 35.49260 | 10.80558 | 32613 ft | 450 kts | 193° |
| 2026-05-05 15:16 | 35.46184 | 10.79965 | 32030 ft | 446 kts | 193° |
| 2026-05-05 15:17 | 35.43132 | 10.79377 | 31454 ft | 443 kts | 192° |
| 2026-05-05 15:17 | 35.40091 | 10.78792 | 30880 ft | 439 kts | 192° |
| 2026-05-05 15:17 | 35.37086 | 10.78214 | 30314 ft | 436 kts | 192° |
| 2026-05-05 15:17 | 35.34103 | 10.77641 | 29711 ft | 432 kts | 192° |
| 2026-05-05 15:18 | 35.31110 | 10.77065 | 28450 ft | 435 kts | 192° |
| 2026-05-05 15:18 | 35.28156 | 10.76500 | 27248 ft | 425 kts | 192° |
| 2026-05-05 15:18 | 35.25272 | 10.75950 | 26476 ft | 408 kts | 192° |
| 2026-05-05 15:18 | 35.22510 | 10.75421 | 25965 ft | 399 kts | 192° |
| 2026-05-05 15:19 | 35.19792 | 10.74936 | 25084 ft | 393 kts | 191° |
| 2026-05-05 15:19 | 35.17045 | 10.74514 | 24221 ft | 401 kts | 190° |
| 2026-05-05 15:19 | 35.14264 | 10.74121 | 23379 ft | 406 kts | 190° |
| 2026-05-05 15:19 | 35.11445 | 10.73702 | 22405 ft | 409 kts | 190° |
| 2026-05-05 15:20 | 35.08611 | 10.73263 | 21480 ft | 412 kts | 190° |
| 2026-05-05 15:20 | 35.05777 | 10.72832 | 20934 ft | 405 kts | 190° |
| 2026-05-05 15:20 | 35.03010 | 10.72421 | 20453 ft | 396 kts | 190° |
| 2026-05-05 15:20 | 35.00296 | 10.72014 | 19960 ft | 389 kts | 190° |
| 2026-05-05 15:21 | 34.97635 | 10.71610 | 19490 ft | 382 kts | 190° |
| 2026-05-05 15:21 | 34.95028 | 10.71216 | 19020 ft | 375 kts | 190° |
| 2026-05-05 15:21 | 34.92459 | 10.70831 | 18566 ft | 369 kts | 190° |
| 2026-05-05 15:21 | 34.89927 | 10.70451 | 18093 ft | 363 kts | 190° |
| 2026-05-05 15:22 | 34.87483 | 10.70083 | 17639 ft | 355 kts | 190° |
| 2026-05-05 15:22 | 34.85051 | 10.69718 | 17216 ft | 348 kts | 190° |
| 2026-05-05 15:22 | 34.82675 | 10.69361 | 16822 ft | 342 kts | 190° |
| 2026-05-05 15:22 | 34.80290 | 10.69001 | 16416 ft | 351 kts | 190° |
| 2026-05-05 15:23 | 34.77825 | 10.68628 | 16007 ft | 362 kts | 190° |
| 2026-05-05 15:23 | 34.75310 | 10.68254 | 15601 ft | 364 kts | 189° |
| 2026-05-05 15:23 | 34.72797 | 10.67881 | 15196 ft | 363 kts | 189° |
| 2026-05-05 15:23 | 34.70295 | 10.67507 | 14799 ft | 361 kts | 189° |
| 2026-05-05 15:24 | 34.67806 | 10.67133 | 14400 ft | 359 kts | 189° |
| 2026-05-05 15:24 | 34.65329 | 10.66763 | 14016 ft | 358 kts | 189° |
| 2026-05-05 15:24 | 34.62865 | 10.66395 | 13596 ft | 356 kts | 189° |
| 2026-05-05 15:24 | 34.60406 | 10.66028 | 13160 ft | 354 kts | 189° |
| 2026-05-05 15:25 | 34.57976 | 10.65666 | 12728 ft | 351 kts | 189° |
| 2026-05-05 15:25 | 34.55557 | 10.65305 | 12301 ft | 348 kts | 189° |
| 2026-05-05 15:25 | 34.53160 | 10.64948 | 11877 ft | 346 kts | 189° |
| 2026-05-05 15:25 | 34.50779 | 10.64594 | 11457 ft | 343 kts | 189° |
| 2026-05-05 15:26 | 34.48421 | 10.64243 | 11049 ft | 340 kts | 189° |
| 2026-05-05 15:26 | 34.46171 | 10.63909 | 10658 ft | 338 kts | 189° |
| 2026-05-05 15:26 | 34.43800 | 10.63555 | 10247 ft | 335 kts | 188° |
| 2026-05-05 15:26 | 34.41491 | 10.63211 | 9851 ft | 333 kts | 188° |
| 2026-05-05 15:27 | 34.39234 | 10.62877 | 9538 ft | 319 kts | 188° |
| 2026-05-05 15:27 | 34.37120 | 10.62566 | 9218 ft | 293 kts | 188° |
| 2026-05-05 15:27 | 34.35114 | 10.62267 | 8918 ft | 291 kts | 188° |
| 2026-05-05 15:27 | 34.33141 | 10.61974 | 8620 ft | 283 kts | 188° |
| 2026-05-05 15:28 | 34.31191 | 10.61684 | 8325 ft | 279 kts | 188° |
| 2026-05-05 15:28 | 34.29297 | 10.61404 | 8072 ft | 277 kts | 188° |
| 2026-05-05 15:28 | 34.27368 | 10.61118 | 7811 ft | 274 kts | 188° |
| 2026-05-05 15:28 | 34.25500 | 10.60842 | 7565 ft | 273 kts | 188° |
| 2026-05-05 15:29 | 34.23616 | 10.60563 | 7317 ft | 272 kts | 188° |
| 2026-05-05 15:29 | 34.21741 | 10.60285 | 7074 ft | 272 kts | 188° |
| 2026-05-05 15:29 | 34.19871 | 10.60009 | 6831 ft | 269 kts | 188° |
| 2026-05-05 15:29 | 34.18017 | 10.59736 | 6589 ft | 269 kts | 188° |
| 2026-05-05 15:30 | 34.16162 | 10.59461 | 6348 ft | 267 kts | 188° |
| 2026-05-05 15:30 | 34.14320 | 10.59188 | 6114 ft | 266 kts | 188° |
| 2026-05-05 15:30 | 34.12487 | 10.58919 | 5862 ft | 264 kts | 188° |
| 2026-05-05 15:30 | 34.10664 | 10.58650 | 5611 ft | 264 kts | 188° |
| 2026-05-05 15:31 | 34.08850 | 10.58383 | 5367 ft | 262 kts | 187° |
| 2026-05-05 15:31 | 34.07061 | 10.58118 | 5123 ft | 262 kts | 187° |
| 2026-05-05 15:31 | 34.05247 | 10.57851 | 4884 ft | 262 kts | 187° |
| 2026-05-05 15:31 | 34.03438 | 10.57585 | 4645 ft | 262 kts | 187° |
| 2026-05-05 15:32 | 34.01642 | 10.57321 | 4393 ft | 259 kts | 186° |
| 2026-05-05 15:32 | 33.99852 | 10.57058 | 4148 ft | 257 kts | 186° |
| 2026-05-05 15:32 | 33.98076 | 10.56797 | 3902 ft | 254 kts | 186° |
| 2026-05-05 15:32 | 33.96358 | 10.56542 | 3635 ft | 240 kts | 185° |
| 2026-05-05 15:33 | 33.94773 | 10.56308 | 3348 ft | 220 kts | 185° |
| 2026-05-05 15:33 | 33.93306 | 10.56092 | 3053 ft | 207 kts | 184° |
| 2026-05-05 15:33 | 33.91874 | 10.55884 | 2774 ft | 207 kts | 184° |
| 2026-05-05 15:33 | 33.90446 | 10.55674 | 2499 ft | 206 kts | 183° |
| 2026-05-05 15:34 | 33.89030 | 10.55608 | 2271 ft | 200 kts | 175° |
| 2026-05-05 15:34 | 33.87731 | 10.56086 | 1983 ft | 199 kts | 139° |
| 2026-05-05 15:34 | 33.86904 | 10.57353 | 1991 ft | 192 kts | 122° |
| 2026-05-05 15:34 | 33.86660 | 10.58889 | 1962 ft | 194 kts | 79° |
| 2026-05-05 15:35 | 33.87121 | 10.60435 | 1976 ft | 200 kts | 80° |
| 2026-05-05 15:35 | 33.87095 | 10.62080 | 1983 ft | 199 kts | 92° |
| 2026-05-05 15:35 | 33.87201 | 10.63736 | 1979 ft | 196 kts | 88° |
| 2026-05-05 15:35 | 33.87295 | 10.65331 | 1838 ft | 190 kts | 88° |
| 2026-05-05 15:36 | 33.87337 | 10.66856 | 1539 ft | 177 kts | 91° |
| 2026-05-05 15:36 | 33.87333 | 10.68284 | 1246 ft | 163 kts | 89° |
| 2026-05-05 15:36 | 33.87339 | 10.69572 | 1038 ft | 147 kts | 87° |
| 2026-05-05 15:36 | 33.87363 | 10.70779 | 851 ft | 142 kts | 86° |
| 2026-05-05 15:37 | 33.87391 | 10.71959 | 722 ft | 142 kts | 86° |
| 2026-05-05 15:37 | 33.87422 | 10.73149 | 546 ft | 141 kts | 86° |
| 2026-05-05 15:37 | 33.87456 | 10.74327 | 346 ft | 140 kts | 85° |
| 2026-05-05 15:37 | 33.87490 | 10.75513 | 157 ft | 145 kts | 85° |
| 2026-05-05 15:38 | 33.87521 | 10.76710 | 29 ft | 135 kts | 87° |
| 2026-05-05 15:38 | 33.87542 | 10.77583 | 29 ft | 65 kts | 88° |
| 2026-05-05 15:38 | 33.87553 | 10.78091 | 28 ft | 55 kts | 89° |
| 2026-05-05 15:38 | 33.87563 | 10.78491 | 28 ft | 28 kts | 89° |
| 2026-05-05 15:39 | 33.87524 | 10.78594 | 26 ft | 10 kts | 170° |
| 2026-05-05 15:39 | 33.87437 | 10.78589 | 27 ft | 14 kts | 202° |
| 2026-05-05 15:39 | 33.87398 | 10.78504 | 29 ft | 11 kts | 268° |
| 2026-05-05 15:39 | 33.87397 | 10.78427 | 32 ft | 9 kts | 268° |
| 2026-05-05 15:40 | 33.87395 | 10.78367 | 32 ft | 0 kts | 268° |
| 2026-05-05 15:41 | 33.87395 | 10.78366 | 32 ft | 1 kts | 268° |
| 2026-05-05 15:41 | 33.87395 | 10.78346 | 32 ft | 2 kts | 268° |
| 2026-05-05 15:42 | 33.87393 | 10.78292 | 32 ft | 13 kts | 268° |
| 2026-05-05 15:42 | 33.87398 | 10.78158 | 32 ft | 22 kts | 268° |
| 2026-05-05 15:42 | 33.87393 | 10.77977 | 32 ft | 20 kts | 268° |
| 2026-05-05 15:42 | 33.87389 | 10.77806 | 32 ft | 20 kts | 268° |
| 2026-05-05 15:43 | 33.87385 | 10.77645 | 32 ft | 20 kts | 268° |
| 2026-05-05 15:43 | 33.87381 | 10.77473 | 32 ft | 21 kts | 268° |
| 2026-05-05 15:43 | 33.87370 | 10.77324 | 32 ft | 15 kts | 242° |
| 2026-05-05 15:43 | 33.87314 | 10.77302 | 32 ft | 2 kts | 157° |
| 2026-05-05 15:44 | 33.87299 | 10.77314 | 32 ft | 8 kts | 140° |
| 2026-05-05 15:44 | 33.87260 | 10.77363 | 32 ft | 4 kts | 133° |
| 2026-05-05 15:44 | 33.87250 | 10.77376 | 32 ft | 0 kts | 132° |